Time;durP1;ratioP1;P1;durP2;ratioP2;P2;SDS_P1;SDS_P2;PMS_P1;PMS_P2;Temp;Humidity;BMP_temperature;BMP_pressure;BME280_temperature;BME280_humidity;BME280_pressure;Samples;Min_cycle;Max_cycle;Signal;HPM_P1;HPM_P2
2024/04/08 00:01:19;;;;;;;13.70;11.30;;;;;;;10.36;100.00;100972.48;87589;271;137727;-73
2024/04/08 00:03:19;;;;;;;14.40;11.50;;;;;;;10.34;100.00;100975.90;87637;275;22760;-73
2024/04/08 00:05:21;;;;;;;14.90;12.10;;;;;;;10.33;100.00;100976.86;87625;270;136883;-71
2024/04/08 00:07:21;;;;;;;15.40;11.50;;;;;;;10.35;100.00;100970.66;87536;271;23705;-75
2024/04/08 00:09:23;;;;;;;15.50;12.00;;;;;;;10.37;100.00;100966.77;87406;262;138540;-74
2024/04/08 00:11:23;;;;;;;16.00;12.20;;;;;;;10.36;100.00;100966.85;87141;271;22571;-73
2024/04/08 00:13:24;;;;;;;14.90;12.00;;;;;;;10.36;100.00;100964.70;87146;275;138293;-74
2024/04/08 00:15:24;;;;;;;13.90;11.70;;;;;;;10.36;100.00;100960.84;87219;270;22573;-70
2024/04/08 00:17:25;;;;;;;16.60;11.80;;;;;;;10.34;100.00;100955.28;87211;273;136672;-71
2024/04/08 00:19:26;;;;;;;14.40;12.40;;;;;;;10.32;100.00;100954.67;87006;276;22610;-71
2024/04/08 00:21:26;;;;;;;15.30;12.90;;;;;;;10.30;100.00;100954.29;87138;270;137294;-71
2024/04/08 00:23:27;;;;;;;18.30;13.30;;;;;;;10.32;100.00;100954.48;87244;271;25240;-70
2024/04/08 00:25:28;;;;;;;15.20;12.90;;;;;;;10.33;100.00;100954.69;87106;272;137546;-72
2024/04/08 00:27:30;;;;;;;20.30;12.80;;;;;;;10.35;100.00;100954.10;87353;266;22639;-69
2024/04/08 00:29:30;;;;;;;19.50;12.20;;;;;;;10.37;100.00;100955.16;87191;271;137399;-71
2024/04/08 00:31:31;;;;;;;15.90;12.30;;;;;;;10.38;100.00;100961.31;87322;278;25259;-72
2024/04/08 00:33:34;;;;;;;14.90;11.80;;;;;;;10.37;100.00;100963.48;87188;270;138505;-72
2024/04/08 00:35:34;;;;;;;14.50;11.70;;;;;;;10.38;100.00;100965.71;87289;263;22905;-73
2024/04/08 00:37:35;;;;;;;19.20;13.60;;;;;;;10.39;100.00;100961.02;87229;270;137678;-73
2024/04/08 00:39:36;;;;;;;17.10;13.90;;;;;;;10.39;100.00;100964.12;87246;269;22720;-69
2024/04/08 00:41:37;;;;;;;17.60;13.00;;;;;;;10.40;100.00;100964.29;87172;271;137352;-71
2024/04/08 00:43:37;;;;;;;15.60;13.00;;;;;;;10.43;100.00;100965.48;87390;274;25946;-72
2024/04/08 00:45:41;;;;;;;20.30;14.80;;;;;;;10.42;100.00;100964.92;87384;273;137307;-68
2024/04/08 00:47:42;;;;;;;17.60;13.10;;;;;;;10.41;100.00;100962.31;87314;274;22554;-71
2024/04/08 00:49:44;;;;;;;17.30;12.80;;;;;;;10.40;100.00;100962.83;86993;266;137194;-74
2024/04/08 00:51:45;;;;;;;19.90;13.50;;;;;;;10.39;100.00;100963.86;87688;268;24036;-70
2024/04/08 00:53:49;;;;;;;15.30;11.90;;;;;;;10.38;100.00;100960.21;87174;271;139220;-70
2024/04/08 00:55:51;;;;;;;18.20;12.80;;;;;;;10.36;100.00;100954.91;87329;272;26031;-70
2024/04/08 00:57:52;;;;;;;16.10;12.90;;;;;;;10.33;100.00;100955.01;87206;272;136861;-71
2024/04/08 00:59:53;;;;;;;15.80;13.00;;;;;;;10.31;100.00;100957.54;87245;272;25092;-70
2024/04/08 01:01:54;;;;;;;18.90;13.50;;;;;;;10.31;100.00;100960.45;87054;271;137540;-69
2024/04/08 01:03:58;;;;;;;16.90;12.40;;;;;;;10.31;100.00;100959.34;87449;279;23749;-72
2024/04/08 01:05:59;;;;;;;18.20;12.30;;;;;;;10.31;100.00;100957.95;87313;274;137405;-71
2024/04/08 01:08:02;;;;;;;15.30;11.50;;;;;;;10.30;100.00;100960.02;87317;273;22575;-68
2024/04/08 01:10:04;;;;;;;14.40;11.10;;;;;;;10.29;100.00;100960.67;87283;275;22847;-72
2024/04/08 01:12:05;;;;;;;19.00;13.30;;;;;;;10.27;100.00;100967.23;87123;271;138650;-73
2024/04/08 01:14:06;;;;;;;17.80;12.60;;;;;;;10.28;100.00;100967.20;87225;279;22542;-69
2024/04/08 01:16:07;;;;;;;15.30;11.00;;;;;;;10.28;100.00;100964.63;87150;279;138422;-72
2024/04/08 01:18:08;;;;;;;18.90;12.60;;;;;;;10.28;100.00;100961.27;87537;270;22579;-73
2024/04/08 01:20:09;;;;;;;13.60;11.90;;;;;;;10.28;100.00;100959.69;87398;275;138014;-71
2024/04/08 01:22:10;;;;;;;15.90;11.80;;;;;;;10.26;100.00;100956.10;87168;268;22542;-78
2024/04/08 01:24:13;;;;;;;15.60;11.30;;;;;;;10.24;100.00;100956.01;87485;279;138561;-75
2024/04/08 01:26:14;;;;;;;18.30;12.50;;;;;;;10.23;100.00;100959.90;87336;270;22800;-69
2024/04/08 01:28:15;;;;;;;13.70;11.30;;;;;;;10.22;100.00;100965.17;87271;263;138945;-69
2024/04/08 01:30:22;;;;;;;14.60;10.70;;;;;;;10.21;100.00;100959.52;87213;272;22572;-69
2024/04/08 01:32:22;;;;;;;17.10;12.40;;;;;;;10.21;100.00;100956.35;87129;270;137268;-70
2024/04/08 01:34:24;;;;;;;17.60;11.40;;;;;;;10.21;100.00;100952.48;87119;281;22633;-69
2024/04/08 01:36:25;;;;;;;15.00;11.20;;;;;;;10.19;100.00;100956.75;87213;270;138594;-69
2024/04/08 01:38:27;;;;;;;11.70;10.20;;;;;;;10.17;100.00;100954.70;87163;272;24011;-71
2024/04/08 01:40:28;;;;;;;12.10;10.80;;;;;;;10.17;100.00;100959.27;87113;274;137144;-71
2024/04/08 01:42:28;;;;;;;13.60;11.40;;;;;;;10.16;100.00;100957.23;87136;271;22617;-71
2024/04/08 01:44:29;;;;;;;12.80;11.20;;;;;;;10.14;100.00;100956.23;87121;270;137368;-72
2024/04/08 01:46:30;;;;;;;16.60;12.00;;;;;;;10.13;100.00;100957.43;87137;273;22642;-68
2024/04/08 01:48:32;;;;;;;13.30;11.90;;;;;;;10.13;100.00;100963.26;87212;275;137068;-69
2024/04/08 01:50:32;;;;;;;18.50;11.30;;;;;;;10.13;100.00;100964.86;87352;267;23732;-72
2024/04/08 01:52:33;;;;;;;19.10;12.70;;;;;;;10.12;100.00;100968.66;87203;278;137589;-70
2024/04/08 01:54:34;;;;;;;17.70;12.00;;;;;;;10.14;100.00;100968.36;87289;275;22566;-69
2024/04/08 01:56:35;;;;;;;14.50;12.90;;;;;;;10.16;100.00;100961.77;87295;266;137678;-70
2024/04/08 01:58:37;;;;;;;17.00;13.70;;;;;;;10.18;100.00;100963.09;87222;279;24014;-71
2024/04/08 02:00:37;;;;;;;17.90;12.20;;;;;;;10.19;100.00;100960.52;87183;267;137628;-69
2024/04/08 02:02:38;;;;;;;13.30;11.30;;;;;;;10.20;100.00;100959.31;87248;268;22615;-72
2024/04/08 02:04:39;;;;;;;15.10;12.90;;;;;;;10.21;100.00;100958.45;87059;276;137560;-71
2024/04/08 02:06:40;;;;;;;14.80;12.70;;;;;;;10.22;100.00;100962.14;87338;270;22568;-70
2024/04/08 02:08:41;;;;;;;15.90;12.60;;;;;;;10.20;100.00;100963.55;87236;278;137740;-69
2024/04/08 02:10:43;;;;;;;17.90;14.10;;;;;;;10.20;100.00;100965.68;87587;270;25121;-70
2024/04/08 02:12:45;;;;;;;16.50;13.00;;;;;;;10.21;100.00;100964.37;87471;268;136942;-68
2024/04/08 02:14:46;;;;;;;16.50;13.30;;;;;;;10.23;100.00;100964.30;87284;277;24011;-68
2024/04/08 02:16:46;;;;;;;14.90;13.30;;;;;;;10.25;100.00;100958.07;87103;270;137249;-74
2024/04/08 02:18:51;;;;;;;16.40;13.50;;;;;;;10.24;100.00;100962.80;87143;270;25271;-70
2024/04/08 02:20:51;;;;;;;21.50;14.40;;;;;;;10.23;100.00;100964.27;87356;268;139383;-68
2024/04/08 02:22:52;;;;;;;15.50;12.30;;;;;;;10.22;100.00;100957.30;87295;274;26333;-69
2024/04/08 02:24:53;;;;;;;17.20;15.30;;;;;;;10.20;100.00;100959.35;87248;276;138041;-69
2024/04/08 02:26:54;;;;;;;17.50;15.20;;;;;;;10.17;100.00;100962.88;87268;274;24004;-68
2024/04/08 02:28:57;;;;;;;18.40;15.70;;;;;;;10.15;100.00;100964.31;87154;271;137394;-68
2024/04/08 02:31:02;;;;;;;21.10;17.00;;;;;;;10.16;100.00;100959.66;87376;266;23338;-69
2024/04/08 02:33:03;;;;;;;18.20;15.80;;;;;;;10.15;100.00;100958.48;87208;278;137393;-70
2024/04/08 02:35:05;;;;;;;18.30;16.20;;;;;;;10.18;100.00;100962.42;87284;278;22584;-68
2024/04/08 02:37:05;;;;;;;17.90;15.60;;;;;;;10.20;100.00;100957.59;87215;266;138551;-67
2024/04/08 02:39:08;;;;;;;22.00;17.00;;;;;;;10.20;100.00;100957.31;87276;266;22659;-68
2024/04/08 02:41:08;;;;;;;19.50;15.70;;;;;;;10.21;100.00;100959.17;87258;271;138307;-68
2024/04/08 02:43:09;;;;;;;19.90;14.80;;;;;;;10.23;100.00;100957.08;87293;268;22627;-67
2024/04/08 02:45:10;;;;;;;24.80;16.50;;;;;;;10.26;100.00;100960.09;87149;262;138940;-70
2024/04/08 02:47:11;;;;;;;18.70;14.50;;;;;;;10.27;100.00;100966.13;87301;267;24014;-68
2024/04/08 02:49:11;;;;;;;20.30;16.40;;;;;;;10.29;100.00;100964.36;87028;272;138528;-70
2024/04/08 02:51:12;;;;;;;18.30;14.70;;;;;;;10.30;100.00;100965.46;87267;278;24068;-68
2024/04/08 02:53:13;;;;;;;20.00;16.10;;;;;;;10.31;100.00;100968.03;87124;268;138087;-70
2024/04/08 02:55:14;;;;;;;19.20;17.00;;;;;;;10.32;100.00;100970.84;87295;277;25332;-70
2024/04/08 02:57:14;;;;;;;20.90;15.80;;;;;;;10.33;100.00;100973.29;87089;279;139075;-68
2024/04/08 02:59:15;;;;;;;17.90;16.20;;;;;;;10.35;100.00;100970.50;87231;276;25156;-69
2024/04/08 03:01:16;;;;;;;17.20;15.30;;;;;;;10.36;100.00;100973.45;87230;278;137599;-73
2024/04/08 03:03:18;;;;;;;22.60;16.70;;;;;;;10.36;100.00;100971.98;87337;266;25191;-69
2024/04/08 03:05:19;;;;;;;22.30;16.40;;;;;;;10.36;100.00;100971.25;87285;273;137816;-68
2024/04/08 03:07:20;;;;;;;19.60;16.50;;;;;;;10.35;100.00;100972.75;87337;270;22568;-70
2024/04/08 03:09:22;;;;;;;18.20;14.30;;;;;;;10.34;100.00;100967.01;87342;273;137713;-72
2024/04/08 03:11:22;;;;;;;20.60;16.00;;;;;;;10.33;100.00;100964.48;87372;266;22546;-70
2024/04/08 03:13:23;;;;;;;21.60;14.10;;;;;;;10.31;100.00;100965.71;87281;274;138461;-68
2024/04/08 03:15:24;;;;;;;18.80;16.60;;;;;;;10.29;100.00;100967.16;87243;274;22580;-71
2024/04/08 03:17:24;;;;;;;22.60;15.30;;;;;;;10.29;100.00;100961.86;87164;270;137561;-71
2024/04/08 03:19:25;;;;;;;16.60;14.90;;;;;;;10.27;100.00;100957.23;87298;270;24065;-68
2024/04/08 03:21:26;;;;;;;17.30;15.50;;;;;;;10.28;100.00;100959.14;87175;278;137658;-68
2024/04/08 03:23:27;;;;;;;22.10;16.60;;;;;;;10.31;100.00;100959.56;87301;278;22589;-68
2024/04/08 03:25:27;;;;;;;18.20;15.70;;;;;;;10.35;100.00;100964.27;87219;273;137669;-68
2024/04/08 03:27:29;;;;;;;21.70;15.80;;;;;;;10.38;100.00;100967.65;87296;273;24257;-68
2024/04/08 03:29:29;;;;;;;19.40;15.10;;;;;;;10.41;100.00;100967.02;87150;279;137548;-69
2024/04/08 03:31:30;;;;;;;20.00;16.00;;;;;;;10.43;100.00;100971.17;87336;270;22607;-68
2024/04/08 03:33:31;;;;;;;20.60;14.90;;;;;;;10.47;100.00;100974.11;87184;279;137700;-70
2024/04/08 03:35:32;;;;;;;16.50;14.90;;;;;;;10.50;100.00;100973.45;87327;274;25105;-69
2024/04/08 03:37:33;;;;;;;21.90;16.60;;;;;;;10.53;100.00;100976.48;87148;270;137384;-69
2024/04/08 03:39:33;;;;;;;17.00;13.80;;;;;;;10.56;100.00;100978.65;87328;273;22603;-67
2024/04/08 03:41:34;;;;;;;15.50;13.90;;;;;;;10.59;100.00;100980.23;87209;279;137310;-67
2024/04/08 03:43:36;;;;;;;22.20;14.20;;;;;;;10.61;100.00;100978.93;87325;267;22545;-67
2024/04/08 03:45:38;;;;;;;15.70;14.20;;;;;;;10.62;100.00;100977.92;87228;277;139004;-70
2024/04/08 03:47:39;;;;;;;19.30;14.90;;;;;;;10.63;100.00;100977.29;87476;271;22638;-68
2024/04/08 03:49:40;;;;;;;16.50;14.40;;;;;;;10.66;100.00;100977.35;87100;266;137386;-71
2024/04/08 03:51:41;;;;;;;15.90;13.00;;;;;;;10.67;100.00;100977.17;87373;269;25127;-72
2024/04/08 03:53:42;;;;;;;16.70;14.70;;;;;;;10.70;100.00;100978.50;87201;264;137159;-68
2024/04/08 03:55:43;;;;;;;16.70;12.80;;;;;;;10.73;100.00;100978.71;87455;271;25258;-68
2024/04/08 03:57:44;;;;;;;16.70;14.60;;;;;;;10.76;100.00;100978.50;87436;276;137642;-71
2024/04/08 03:59:45;;;;;;;17.90;15.00;;;;;;;10.80;100.00;100977.70;87450;271;25180;-72
2024/04/08 04:01:46;;;;;;;21.00;15.10;;;;;;;10.85;100.00;100976.83;87235;276;137234;-72
2024/04/08 04:03:47;;;;;;;17.10;13.60;;;;;;;10.90;100.00;100979.36;87298;269;24029;-70
2024/04/08 04:05:48;;;;;;;17.30;13.60;;;;;;;10.97;100.00;100979.66;87238;269;137438;-67
2024/04/08 04:07:49;;;;;;;20.10;14.40;;;;;;;11.01;100.00;100975.88;87304;276;25230;-70
2024/04/08 04:09:50;;;;;;;17.10;12.40;;;;;;;11.03;100.00;100974.66;87167;266;137127;-68
2024/04/08 04:11:51;;;;;;;15.20;13.60;;;;;;;11.08;100.00;100981.77;87277;271;22565;-67
2024/04/08 04:13:53;;;;;;;14.50;13.00;;;;;;;11.14;100.00;100982.56;87200;266;136873;-69
2024/04/08 04:15:54;;;;;;;15.30;12.80;;;;;;;11.18;100.00;100981.54;87308;270;22575;-69
2024/04/08 04:17:54;;;;;;;17.80;11.50;;;;;;;11.27;100.00;100983.52;87218;274;136808;-70
2024/04/08 04:19:55;;;;;;;14.10;11.50;;;;;;;11.37;100.00;100985.83;87308;270;25215;-69
2024/04/08 04:21:56;;;;;;;17.90;11.30;;;;;;;11.46;100.00;100988.25;87322;275;136914;-69
2024/04/08 04:23:56;;;;;;;13.90;11.50;;;;;;;11.56;100.00;100992.81;87335;277;25335;-72
2024/04/08 04:25:59;;;;;;;13.50;12.10;;;;;;;11.64;100.00;100994.73;87209;278;137683;-67
2024/04/08 04:28:00;;;;;;;18.50;12.40;;;;;;;11.75;100.00;100999.52;87300;274;23736;-68
2024/04/08 04:30:01;;;;;;;12.50;10.20;;;;;;;11.87;100.00;101002.19;87268;269;137364;-70
2024/04/08 04:32:02;;;;;;;11.90;10.70;;;;;;;11.99;100.00;101002.77;87380;273;22578;-72
2024/04/08 04:34:03;;;;;;;16.00;12.00;;;;;;;12.09;100.00;100998.95;87637;265;25217;-72
2024/04/08 04:36:04;;;;;;;12.40;10.80;;;;;;;12.20;100.00;101001.61;87538;271;137274;-73
2024/04/08 04:38:06;;;;;;;12.30;10.40;;;;;;;12.33;100.00;101001.27;87295;273;22583;-73
2024/04/08 04:40:08;;;;;;;18.50;11.30;;;;;;;12.49;100.00;101001.33;87545;273;137612;-74
2024/04/08 04:42:09;;;;;;;12.00;9.70;;;;;;;12.65;100.00;101000.27;87552;270;25646;-72
2024/04/08 04:44:10;;;;;;;14.20;11.20;;;;;;;12.77;100.00;101000.79;87243;270;137161;-72
2024/04/08 04:46:11;;;;;;;11.40;10.30;;;;;;;12.83;100.00;101001.44;87278;270;23069;-73
2024/04/08 04:48:11;;;;;;;16.30;10.80;;;;;;;12.91;100.00;101003.52;87320;270;137112;-75
2024/04/08 04:50:12;;;;;;;12.50;10.30;;;;;;;13.00;100.00;101006.14;87654;272;22559;-75
2024/04/08 04:52:13;;;;;;;17.00;10.40;;;;;;;13.12;100.00;101007.05;87156;273;137565;-70
2024/04/08 04:54:13;;;;;;;13.80;10.50;;;;;;;13.18;100.00;101009.64;87259;269;25085;-76
2024/04/08 04:56:14;;;;;;;12.00;10.00;;;;;;;13.22;100.00;101013.67;87170;266;139446;-79
2024/04/08 04:58:14;;;;;;;12.50;9.90;;;;;;;13.25;100.00;101014.02;87406;268;22568;-75
2024/04/08 05:00:16;;;;;;;14.40;10.50;;;;;;;13.30;100.00;101014.11;87405;277;137338;-73
2024/04/08 05:02:17;;;;;;;15.50;9.30;;;;;;;13.36;100.00;101011.22;87419;277;22577;-79
2024/04/08 05:04:17;;;;;;;17.10;9.30;;;;;;;13.40;100.00;101010.71;87621;266;137650;-77
2024/04/08 05:06:18;;;;;;;15.20;9.70;;;;;;;13.43;100.00;101014.45;87757;271;25112;-76
2024/04/08 05:08:20;;;;;;;12.30;9.40;;;;;;;13.48;100.00;101013.52;87635;270;137287;-79
2024/04/08 05:10:20;;;;;;;10.80;7.80;;;;;;;13.54;100.00;101014.94;87469;270;22580;-78
2024/04/08 05:12:21;;;;;;;12.20;8.20;;;;;;;13.58;100.00;101016.21;87426;271;137036;-81
2024/04/08 05:14:22;;;;;;;12.70;8.60;;;;;;;13.62;100.00;101020.54;88001;270;22582;-81
2024/04/08 05:16:23;;;;;;;12.00;7.90;;;;;;;13.67;100.00;101024.77;87579;275;137576;-80
2024/04/08 05:18:23;;;;;;;10.00;7.10;;;;;;;13.68;100.00;101023.73;87420;270;25129;-75
2024/04/08 05:20:26;;;;;;;8.40;6.80;;;;;;;13.68;100.00;101020.55;87244;265;137798;-77
2024/04/08 05:22:28;;;;;;;11.20;7.20;;;;;;;13.66;100.00;101022.73;87345;266;22547;-77
2024/04/08 05:24:29;;;;;;;8.00;6.70;;;;;;;13.67;100.00;101020.51;87401;266;137141;-76
2024/04/08 05:26:30;;;;;;;8.70;6.20;;;;;;;13.68;100.00;101017.42;87328;278;25080;-74
2024/04/08 05:28:31;;;;;;;7.50;5.40;;;;;;;13.69;100.00;101014.70;87140;277;137377;-79
2024/04/08 05:30:31;;;;;;;8.00;6.30;;;;;;;13.68;100.00;101008.02;87221;271;22557;-74
2024/04/08 05:32:32;;;;;;;9.90;5.50;;;;;;;13.71;100.00;101006.56;87420;266;136350;-77
2024/04/08 05:34:33;;;;;;;8.50;5.60;;;;;;;13.74;100.00;101005.52;87260;273;23825;-79
2024/04/08 05:36:34;;;;;;;7.90;5.70;;;;;;;13.76;100.00;101003.39;87410;266;137276;-79
2024/04/08 05:38:34;;;;;;;9.50;5.80;;;;;;;13.80;100.00;101007.79;87272;270;22562;-80
2024/04/08 05:40:39;;;;;;;8.40;5.10;;;;;;;13.81;100.00;101007.27;87260;269;137487;-78
2024/04/08 05:42:40;;;;;;;7.00;4.90;;;;;;;13.85;100.00;101006.77;87316;271;22546;-75
2024/04/08 05:44:40;;;;;;;9.50;5.90;;;;;;;13.96;100.00;101006.33;87228;270;137956;-79
2024/04/08 05:46:42;;;;;;;9.50;5.30;;;;;;;14.09;100.00;101006.02;87455;268;22627;-78
2024/04/08 05:48:43;;;;;;;6.10;5.50;;;;;;;14.23;100.00;101001.20;87192;278;136686;-76
2024/04/08 05:50:46;;;;;;;11.60;5.80;;;;;;;14.38;100.00;101003.97;87635;273;25185;-78
2024/04/08 05:52:47;;;;;;;6.40;5.00;;;;;;;14.52;100.00;101002.03;86612;269;963258;-74
2024/04/08 05:54:48;;;;;;;7.00;4.80;;;;;;;14.67;100.00;101002.64;87376;271;22586;-76
2024/04/08 05:56:49;;;;;;;8.00;4.90;;;;;;;14.86;100.00;101007.80;87244;271;136409;-77
2024/04/08 05:58:50;;;;;;;6.80;5.00;;;;;;;15.11;100.00;101006.23;87320;271;25185;-75
2024/04/08 06:00:50;;;;;;;10.10;6.20;;;;;;;15.37;100.00;101009.07;87336;266;136474;-76
2024/04/08 06:02:52;;;;;;;12.20;5.40;;;;;;;15.57;99.98;101010.13;87298;266;23013;-74
2024/04/08 06:04:53;;;;;;;7.30;5.20;;;;;;;15.82;99.23;101013.28;87475;269;135803;-75
2024/04/08 06:06:54;;;;;;;7.40;5.60;;;;;;;16.13;98.17;101013.60;87284;266;25354;-75
2024/04/08 06:09:04;;;;;;;5.80;5.10;;;;;;;16.54;98.00;101012.48;87422;271;137353;-73
2024/04/08 06:11:05;;;;;;;8.50;6.50;;;;;;;17.12;96.46;101010.80;87625;273;24023;-73
2024/04/08 06:13:06;;;;;;;8.20;5.20;;;;;;;17.71;93.84;101009.59;87409;274;137198;-72
2024/04/08 06:15:08;;;;;;;8.90;5.40;;;;;;;18.30;90.14;101009.06;87527;274;22568;-72
2024/04/08 06:17:08;;;;;;;7.20;5.30;;;;;;;18.83;87.47;101005.59;87400;269;137341;-72
2024/04/08 06:19:10;;;;;;;5.70;4.90;;;;;;;19.25;84.30;101004.58;87500;274;22520;-74
2024/04/08 06:21:10;;;;;;;6.60;4.70;;;;;;;19.59;81.76;101003.52;87423;270;136263;-72
2024/04/08 06:23:11;;;;;;;5.20;3.60;;;;;;;19.92;79.69;101007.72;87560;266;22824;-71
2024/04/08 06:25:12;;;;;;;5.40;4.70;;;;;;;20.19;76.13;101004.94;87417;270;136256;-74
2024/04/08 06:27:12;;;;;;;9.50;5.50;;;;;;;20.31;75.40;101003.85;87525;265;25076;-73
2024/04/08 06:29:13;;;;;;;6.50;4.50;;;;;;;20.45;75.29;101003.11;87457;271;136838;-73
2024/04/08 06:31:14;;;;;;;9.50;4.50;;;;;;;20.68;74.53;101002.77;87492;271;22641;-71
2024/04/08 06:33:15;;;;;;;8.00;5.30;;;;;;;20.96;73.92;101007.85;87416;269;137514;-74
2024/04/08 06:35:17;;;;;;;9.30;5.30;;;;;;;21.26;71.26;101009.85;87475;269;25557;-73
2024/04/08 06:37:18;;;;;;;6.00;4.70;;;;;;;21.44;68.46;101009.59;87439;269;141367;-74
2024/04/08 06:39:19;;;;;;;7.10;5.40;;;;;;;21.46;67.87;101012.14;87472;269;22559;-73
2024/04/08 06:41:20;;;;;;;7.60;4.10;;;;;;;21.42;68.13;101010.84;87406;267;135941;-72
2024/04/08 06:43:21;;;;;;;4.50;4.10;;;;;;;21.45;68.34;101012.23;87447;278;22582;-73
2024/04/08 06:45:21;;;;;;;5.80;4.40;;;;;;;21.60;67.70;101015.04;87433;269;137238;-76
2024/04/08 06:47:24;;;;;;;4.60;3.90;;;;;;;21.67;65.43;101013.86;87540;277;24542;-74
2024/04/08 06:49:25;;;;;;;6.60;4.30;;;;;;;21.63;66.24;101012.54;87433;277;136615;-72
2024/04/08 06:51:26;;;;;;;9.20;4.60;;;;;;;21.62;65.21;101009.64;87513;279;25090;-72
2024/04/08 06:53:26;;;;;;;5.00;3.90;;;;;;;21.54;65.85;101006.69;87432;266;138598;-74
2024/04/08 06:55:27;;;;;;;4.10;3.70;;;;;;;21.54;65.95;101006.97;87572;266;23956;-79
2024/04/08 06:57:28;;;;;;;4.40;3.80;;;;;;;21.57;65.59;101005.61;87441;270;136147;-75
2024/04/08 06:59:29;;;;;;;5.00;4.50;;;;;;;21.53;65.41;101001.59;87562;266;24241;-72
2024/04/08 07:01:30;;;;;;;5.70;4.90;;;;;;;21.37;64.64;101001.59;87405;277;136189;-72
2024/04/08 07:03:31;;;;;;;4.80;4.00;;;;;;;21.06;66.23;101001.23;87549;277;22648;-80
2024/04/08 07:05:32;;;;;;;8.00;5.30;;;;;;;20.74;67.14;101000.67;87448;267;136095;-75
2024/04/08 07:07:33;;;;;;;10.60;5.70;;;;;;;20.42;67.70;101003.64;87636;271;22559;-75
2024/04/08 07:09:34;;;;;;;9.60;5.30;;;;;;;20.08;69.02;100999.64;87516;280;136277;-75
2024/04/08 07:11:34;;;;;;;8.10;5.00;;;;;;;19.83;70.78;100999.08;87659;268;22658;-72
2024/04/08 07:13:36;;;;;;;9.30;6.10;;;;;;;19.60;71.61;100998.26;87682;274;135515;-75
2024/04/08 07:15:37;;;;;;;13.70;5.50;;;;;;;19.38;72.47;100996.83;87792;263;22739;-75
2024/04/08 07:17:38;;;;;;;10.80;5.20;;;;;;;19.19;73.40;100992.83;87498;274;135913;-76
2024/04/08 07:19:39;;;;;;;6.50;5.70;;;;;;;19.06;74.50;100990.95;87582;271;25306;-75
2024/04/08 07:21:40;;;;;;;8.90;5.60;;;;;;;18.99;75.65;100994.88;87443;274;137252;-73
2024/04/08 07:23:41;;;;;;;8.00;5.90;;;;;;;18.97;76.02;100999.95;87624;266;22555;-73
2024/04/08 07:25:44;;;;;;;11.10;5.30;;;;;;;18.92;75.83;100999.38;87398;267;136150;-74
2024/04/08 07:27:44;;;;;;;8.30;5.00;;;;;;;18.87;76.82;101001.69;87600;266;25204;-72
2024/04/08 07:29:46;;;;;;;8.30;5.30;;;;;;;18.89;77.16;101000.74;87518;269;137883;-73
2024/04/08 07:31:47;;;;;;;10.00;6.30;;;;;;;18.92;76.54;101001.58;87805;271;23456;-73
2024/04/08 07:33:48;;;;;;;7.00;5.10;;;;;;;18.89;76.28;100998.22;88006;273;136319;-74
2024/04/08 07:35:48;;;;;;;7.30;5.60;;;;;;;18.88;76.55;100993.70;88131;266;22597;-74
2024/04/08 07:37:49;;;;;;;8.00;6.00;;;;;;;18.92;76.67;100990.91;88085;273;136004;-73
2024/04/08 07:39:50;;;;;;;10.40;7.10;;;;;;;18.95;76.44;100988.62;88261;273;22577;-73
2024/04/08 07:41:51;;;;;;;8.80;5.90;;;;;;;18.98;76.61;100984.84;87604;266;138413;-73
2024/04/08 07:43:51;;;;;;;14.10;6.10;;;;;;;18.98;75.52;100979.02;87601;275;22571;-72
2024/04/08 07:45:52;;;;;;;7.60;5.40;;;;;;;19.00;75.23;100976.71;87441;269;137614;-73
2024/04/08 07:47:53;;;;;;;12.10;5.90;;;;;;;19.03;74.88;100975.54;87605;269;22559;-77
2024/04/08 07:49:56;;;;;;;10.50;5.30;;;;;;;19.04;73.76;100979.57;87608;269;137365;-72
2024/04/08 07:51:56;;;;;;;12.40;6.20;;;;;;;19.00;74.49;100977.95;87603;273;22639;-74
2024/04/08 07:53:57;;;;;;;5.90;4.60;;;;;;;18.99;75.07;100979.31;87440;275;137316;-73
2024/04/08 07:56:02;;;;;;;9.20;6.00;;;;;;;19.04;75.51;100977.23;87548;266;22550;-73
2024/04/08 07:58:02;;;;;;;11.80;7.20;;;;;;;19.14;74.68;100976.35;87424;271;137252;-73
2024/04/08 08:00:04;;;;;;;7.80;5.10;;;;;;;19.18;74.07;100974.80;87503;278;136559;-74
2024/04/08 08:02:10;;;;;;;9.20;5.30;;;;;;;19.21;73.70;100975.58;87651;273;22599;-70
2024/04/08 08:04:11;;;;;;;14.60;6.60;;;;;;;19.24;74.74;100976.38;87398;270;136942;-71
2024/04/08 08:06:14;;;;;;;8.70;6.00;;;;;;;19.29;74.31;100978.25;87458;266;22557;-74
2024/04/08 08:08:14;;;;;;;9.70;6.00;;;;;;;19.30;74.46;100979.27;87366;267;136633;-73
2024/04/08 08:10:15;;;;;;;10.40;5.30;;;;;;;19.33;74.24;100977.56;87496;270;22663;-75
2024/04/08 08:12:18;;;;;;;10.10;5.00;;;;;;;19.39;73.57;100980.68;87271;279;137433;-73
2024/04/08 08:14:18;;;;;;;12.60;4.10;;;;;;;19.47;73.08;100978.55;87497;270;25111;-73
2024/04/08 08:16:19;;;;;;;8.60;4.30;;;;;;;19.56;71.05;100976.89;87385;271;137997;-72
2024/04/08 08:18:20;;;;;;;5.90;4.40;;;;;;;19.61;71.90;100973.72;87368;271;22536;-71
2024/04/08 08:20:21;;;;;;;4.20;3.70;;;;;;;19.66;71.23;100974.73;87245;272;136345;-71
2024/04/08 08:22:23;;;;;;;7.60;3.00;;;;;;;19.72;70.52;100974.32;87496;277;22737;-71
2024/04/08 08:24:23;;;;;;;5.90;2.70;;;;;;;19.76;70.94;100978.08;87324;271;137154;-74
2024/04/08 08:26:28;;;;;;;5.70;3.90;;;;;;;19.86;71.06;100979.45;87461;278;22571;-74
2024/04/08 08:28:29;;;;;;;5.40;3.60;;;;;;;19.97;70.82;100976.73;87314;271;137278;-74
2024/04/08 08:30:29;;;;;;;5.20;3.40;;;;;;;20.07;70.46;100977.60;87471;266;22629;-72
2024/04/08 08:32:30;;;;;;;6.10;3.20;;;;;;;20.17;70.21;100977.38;87465;270;135980;-72
2024/04/08 08:34:31;;;;;;;4.10;3.20;;;;;;;20.22;67.60;100977.95;87486;279;22627;-71
2024/04/08 08:36:31;;;;;;;5.70;3.40;;;;;;;20.22;68.05;100975.40;87444;269;135984;-73
2024/04/08 08:38:33;;;;;;;8.50;3.30;;;;;;;20.24;68.14;100974.14;87487;271;24269;-69
2024/04/08 08:40:43;;;;;;;4.00;3.00;;;;;;;20.30;68.01;100971.45;87336;271;137327;-73
2024/04/08 08:42:44;;;;;;;9.70;2.80;;;;;;;20.41;67.83;100965.12;87592;278;22559;-73
2024/04/08 08:44:52;;;;;;;6.30;3.50;;;;;;;20.52;66.87;100968.92;87357;271;136240;-73
2024/04/08 08:46:53;;;;;;;5.90;4.30;;;;;;;20.58;66.37;100966.20;87554;270;25194;-73
2024/04/08 08:48:59;;;;;;;11.10;3.40;;;;;;;20.62;66.21;100962.61;87261;274;136058;-73
2024/04/08 08:51:02;;;;;;;4.90;3.10;;;;;;;20.67;66.50;100961.63;87536;278;25160;-74
2024/04/08 08:53:08;;;;;;;9.60;3.40;;;;;;;20.74;65.97;100957.87;87710;273;136114;-71
2024/04/08 08:55:09;;;;;;;8.80;2.70;;;;;;;20.82;65.49;100957.21;87591;266;22701;-69
2024/04/08 08:57:09;;;;;;;6.50;2.60;;;;;;;20.90;64.00;100956.66;87478;266;136312;-73
2024/04/08 08:59:13;;;;;;;6.60;3.00;;;;;;;20.96;63.32;100951.63;87705;267;22541;-72
2024/04/08 09:01:15;;;;;;;3.20;1.90;;;;;;;21.04;62.91;100945.42;87545;271;137612;-76
2024/04/08 09:03:17;;;;;;;5.80;2.50;;;;;;;21.10;62.20;100944.45;87597;278;23684;-72
2024/04/08 09:05:17;;;;;;;4.70;2.30;;;;;;;21.13;61.56;100941.58;87331;272;137111;-74
2024/04/08 09:07:18;;;;;;;8.40;1.30;;;;;;;21.16;61.45;100942.05;87466;263;22565;-74
2024/04/08 09:09:19;;;;;;;5.30;1.60;;;;;;;21.19;60.45;100944.02;87417;269;136078;-74
2024/04/08 09:11:20;;;;;;;3.80;1.70;;;;;;;21.22;60.36;100936.64;87514;272;22651;-71
2024/04/08 09:13:23;;;;;;;5.50;1.50;;;;;;;21.25;59.39;100939.67;87222;270;137491;-73
2024/04/08 09:15:24;;;;;;;3.70;0.80;;;;;;;21.29;58.16;100936.32;87429;265;22540;-73